This is the latest recevied weather packets stored in our database for station/object IU2EVW-13. If no packets are shown the sender has not sent any weather packets the latest 10 day(s).
| Time | Temp. | Humidity | Pressure | Rain* | Wind** | Luminosity | Snow |
|---|---|---|---|---|---|---|---|
| 1777463954 | 14.44° C | 75% | 1020 hPa | - | - | - | - |
| 1777462753 | 14.44° C | 74% | 1020 hPa | - | - | - | - |
| 1777461551 | 13.89° C | 78% | 1020.3 hPa | - | - | - | - |
| 1777460349 | 13.33° C | 77% | 1020.2 hPa | - | - | - | - |
| 1777459147 | 13.89° C | 77% | 1020.3 hPa | - | - | - | - |
| 1777457946 | 13.33° C | 76% | 1020.6 hPa | - | - | - | - |
| 1777456745 | 13.33° C | 76% | 1020.6 hPa | - | - | - | - |
| 1777455543 | 13.33° C | 74% | 1020.6 hPa | - | - | - | - |
| 1777454342 | 12.78° C | 73% | 1020.6 hPa | - | - | - | - |
| 1777453141 | 11.67° C | 78% | 1020.7 hPa | - | - | - | - |
| 1777451939 | 11.67° C | 79% | 1020.7 hPa | - | - | - | - |
| 1777450738 | 11.67° C | 79% | 1020.8 hPa | - | - | - | - |
| 1777449536 | 11.11° C | 81% | 1020.7 hPa | - | - | - | - |
| 1777448335 | 11.11° C | 80% | 1020.5 hPa | - | - | - | - |
| 1777447134 | 11.11° C | 80% | 1020.3 hPa | - | - | - | - |
| 1777445932 | 11.11° C | 80% | 1020.1 hPa | - | - | - | - |
| 1777444731 | 11.11° C | 78% | 1020 hPa | - | - | - | - |
| 1777443529 | 11.11° C | 79% | 1019.9 hPa | - | - | - | - |
| 1777442328 | 11.11° C | 79% | 1019.9 hPa | - | - | - | - |
| 1777441126 | 11.11° C | 79% | 1019.8 hPa | - | - | - | - |
| 1777439925 | 11.11° C | 78% | 1019.9 hPa | - | - | - | - |
| 1777438724 | 11.11° C | 77% | 1019.8 hPa | - | - | - | - |
| 1777437522 | 10.56° C | 80% | 1019.6 hPa | - | - | - | - |
| 1777436321 | 10.56° C | 81% | 1019.8 hPa | - | - | - | - |
| 1777435119 | 11.11° C | 78% | 1019.9 hPa | - | - | - | - |
* Rain since midnight (hover to see other rain measurements)
** Current wind speed in m/s (hover to see current wind gust speed)